sensor_id;sensor_type;location;lat;lon;timestamp;temperature;humidity
18268;DHT22;9260;49.998;19.880;2023-08-08T00:02:40;12.60;1.00
18268;DHT22;9260;49.998;19.880;2023-08-08T00:12:48;12.40;1.00
18268;DHT22;9260;49.998;19.880;2023-08-08T00:22:53;12.50;1.00
18268;DHT22;9260;49.998;19.880;2023-08-08T00:32:56;11.80;1.00
18268;DHT22;9260;49.998;19.880;2023-08-08T00:43:01;12.30;1.00
18268;DHT22;9260;49.998;19.880;2023-08-08T00:53:09;12.10;1.00
18268;DHT22;9260;49.998;19.880;2023-08-08T01:03:13;12.00;1.00
18268;DHT22;9260;49.998;19.880;2023-08-08T01:13:20;12.00;1.00
18268;DHT22;9260;49.998;19.880;2023-08-08T01:23:28;12.00;1.00
18268;DHT22;9260;49.998;19.880;2023-08-08T01:33:36;12.80;1.00
18268;DHT22;9260;49.998;19.880;2023-08-08T01:43:40;11.60;1.00
18268;DHT22;9260;49.998;19.880;2023-08-08T01:53:46;10.40;1.00
18268;DHT22;9260;49.998;19.880;2023-08-08T02:03:49;11.00;1.00
18268;DHT22;9260;49.998;19.880;2023-08-08T02:13:54;11.20;1.00
18268;DHT22;9260;49.998;19.880;2023-08-08T02:23:57;10.80;1.00
18268;DHT22;9260;49.998;19.880;2023-08-08T02:34:04;10.70;1.00
18268;DHT22;9260;49.998;19.880;2023-08-08T02:44:07;10.90;1.00
18268;DHT22;9260;49.998;19.880;2023-08-08T02:54:15;10.60;1.00
18268;DHT22;9260;49.998;19.880;2023-08-08T03:04:18;9.90;1.00
18268;DHT22;9260;49.998;19.880;2023-08-08T03:14:23;9.60;1.00
18268;DHT22;9260;49.998;19.880;2023-08-08T03:24:27;9.30;1.00
18268;DHT22;9260;49.998;19.880;2023-08-08T03:34:33;9.40;1.00
18268;DHT22;9260;49.998;19.880;2023-08-08T03:44:38;9.50;1.00
18268;DHT22;9260;49.998;19.880;2023-08-08T03:54:42;10.00;1.00
18268;DHT22;9260;49.998;19.880;2023-08-08T04:04:46;10.00;1.00
18268;DHT22;9260;49.998;19.880;2023-08-08T04:14:50;10.30;1.00
18268;DHT22;9260;49.998;19.880;2023-08-08T04:24:56;11.00;1.00
18268;DHT22;9260;49.998;19.880;2023-08-08T04:35:01;11.30;1.00
18268;DHT22;9260;49.998;19.880;2023-08-08T04:45:07;11.50;1.00
18268;DHT22;9260;49.998;19.880;2023-08-08T04:55:12;11.80;1.00
18268;DHT22;9260;49.998;19.880;2023-08-08T05:05:15;13.00;1.00
18268;DHT22;9260;49.998;19.880;2023-08-08T05:15:20;13.40;1.00
18268;DHT22;9260;49.998;19.880;2023-08-08T05:25:23;13.80;1.00
18268;DHT22;9260;49.998;19.880;2023-08-08T05:35:29;13.80;1.00
18268;DHT22;9260;49.998;19.880;2023-08-08T05:45:33;14.20;1.00
18268;DHT22;9260;49.998;19.880;2023-08-08T05:55:37;14.30;1.00
18268;DHT22;9260;49.998;19.880;2023-08-08T06:05:47;14.70;1.00
18268;DHT22;9260;49.998;19.880;2023-08-08T06:15:51;15.50;1.00
18268;DHT22;9260;49.998;19.880;2023-08-08T06:25:55;16.00;1.00
18268;DHT22;9260;49.998;19.880;2023-08-08T06:36:01;16.30;1.00
18268;DHT22;9260;49.998;19.880;2023-08-08T06:46:06;17.60;1.00
18268;DHT22;9260;49.998;19.880;2023-08-08T06:56:12;17.30;1.00
18268;DHT22;9260;49.998;19.880;2023-08-08T07:06:17;17.70;1.00
18268;DHT22;9260;49.998;19.880;2023-08-08T07:16:24;21.60;1.00
18268;DHT22;9260;49.998;19.880;2023-08-08T07:26:27;25.40;1.00
18268;DHT22;9260;49.998;19.880;2023-08-08T07:36:32;28.60;99.90
18268;DHT22;9260;49.998;19.880;2023-08-08T07:46:35;29.10;99.90
18268;DHT22;9260;49.998;19.880;2023-08-08T07:56:40;32.90;99.90
18268;DHT22;9260;49.998;19.880;2023-08-08T08:06:44;28.90;99.90
18268;DHT22;9260;49.998;19.880;2023-08-08T08:16:49;26.30;99.90
18268;DHT22;9260;49.998;19.880;2023-08-08T08:26:52;32.60;99.90
18268;DHT22;9260;49.998;19.880;2023-08-08T08:36:57;34.70;99.90
18268;DHT22;9260;49.998;19.880;2023-08-08T08:47:02;28.70;99.90
18268;DHT22;9260;49.998;19.880;2023-08-08T08:57:07;25.40;99.90
18268;DHT22;9260;49.998;19.880;2023-08-08T09:07:11;23.30;99.90
18268;DHT22;9260;49.998;19.880;2023-08-08T09:17:16;25.60;99.90
18268;DHT22;9260;49.998;19.880;2023-08-08T09:27:21;38.30;99.90
18268;DHT22;9260;49.998;19.880;2023-08-08T09:37:26;40.00;99.90
18268;DHT22;9260;49.998;19.880;2023-08-08T09:47:36;33.20;99.90
18268;DHT22;9260;49.998;19.880;2023-08-08T09:57:42;27.40;99.90
18268;DHT22;9260;49.998;19.880;2023-08-08T10:07:46;25.70;99.90
18268;DHT22;9260;49.998;19.880;2023-08-08T10:17:52;25.20;99.90
18268;DHT22;9260;49.998;19.880;2023-08-08T10:28:06;27.20;99.90
18268;DHT22;9260;49.998;19.880;2023-08-08T10:38:39;23.80;99.90
18268;DHT22;9260;49.998;19.880;2023-08-08T10:48:52;22.90;99.90
18268;DHT22;9260;49.998;19.880;2023-08-08T10:58:58;24.30;99.90
18268;DHT22;9260;49.998;19.880;2023-08-08T11:09:06;32.50;99.90
18268;DHT22;9260;49.998;19.880;2023-08-08T11:19:12;34.80;99.90
18268;DHT22;9260;49.998;19.880;2023-08-08T11:29:17;29.40;99.90
18268;DHT22;9260;49.998;19.880;2023-08-08T11:39:21;35.50;99.90
18268;DHT22;9260;49.998;19.880;2023-08-08T11:49:25;31.60;99.90
18268;DHT22;9260;49.998;19.880;2023-08-08T11:59:29;24.70;99.90
18268;DHT22;9260;49.998;19.880;2023-08-08T12:09:33;21.00;1.00
18268;DHT22;9260;49.998;19.880;2023-08-08T12:19:45;18.60;1.00
18268;DHT22;9260;49.998;19.880;2023-08-08T12:29:50;17.10;1.00
18268;DHT22;9260;49.998;19.880;2023-08-08T12:39:54;16.40;1.00
18268;DHT22;9260;49.998;19.880;2023-08-08T12:49:58;18.00;1.00
18268;DHT22;9260;49.998;19.880;2023-08-08T13:00:07;29.20;99.90
18268;DHT22;9260;49.998;19.880;2023-08-08T13:10:12;36.90;99.90
18268;DHT22;9260;49.998;19.880;2023-08-08T13:20:16;31.10;99.90
18268;DHT22;9260;49.998;19.880;2023-08-08T13:30:20;26.50;99.90
18268;DHT22;9260;49.998;19.880;2023-08-08T13:40:26;24.60;99.90
18268;DHT22;9260;49.998;19.880;2023-08-08T13:50:29;23.50;1.00
18268;DHT22;9260;49.998;19.880;2023-08-08T14:00:34;22.30;99.90
18268;DHT22;9260;49.998;19.880;2023-08-08T14:10:37;20.70;1.00
18268;DHT22;9260;49.998;19.880;2023-08-08T14:20:42;20.70;1.00
18268;DHT22;9260;49.998;19.880;2023-08-08T14:30:45;20.40;1.00
18268;DHT22;9260;49.998;19.880;2023-08-08T14:40:50;20.10;1.00
18268;DHT22;9260;49.998;19.880;2023-08-08T14:50:54;20.80;1.00
18268;DHT22;9260;49.998;19.880;2023-08-08T15:00:59;21.30;1.00
18268;DHT22;9260;49.998;19.880;2023-08-08T15:11:02;20.40;1.00
18268;DHT22;9260;49.998;19.880;2023-08-08T15:21:07;19.80;1.00
18268;DHT22;9260;49.998;19.880;2023-08-08T15:31:10;19.70;1.00
18268;DHT22;9260;49.998;19.880;2023-08-08T15:41:15;19.70;1.00
18268;DHT22;9260;49.998;19.880;2023-08-08T15:51:20;19.70;1.00
18268;DHT22;9260;49.998;19.880;2023-08-08T16:01:26;19.30;1.00
18268;DHT22;9260;49.998;19.880;2023-08-08T16:11:29;18.80;1.00
18268;DHT22;9260;49.998;19.880;2023-08-08T16:21:33;18.50;1.00
18268;DHT22;9260;49.998;19.880;2023-08-08T16:31:37;18.30;1.00
18268;DHT22;9260;49.998;19.880;2023-08-08T16:41:42;18.10;1.00
18268;DHT22;9260;49.998;19.880;2023-08-08T16:51:45;17.50;1.00
18268;DHT22;9260;49.998;19.880;2023-08-08T17:01:50;16.30;1.00
18268;DHT22;9260;49.998;19.880;2023-08-08T17:11:53;16.00;1.00
18268;DHT22;9260;49.998;19.880;2023-08-08T17:21:58;15.40;1.00
18268;DHT22;9260;49.998;19.880;2023-08-08T17:32:02;15.10;1.00
18268;DHT22;9260;49.998;19.880;2023-08-08T17:42:07;14.90;1.00
18268;DHT22;9260;49.998;19.880;2023-08-08T17:52:10;14.50;1.00
18268;DHT22;9260;49.998;19.880;2023-08-08T18:02:15;13.70;1.00
18268;DHT22;9260;49.998;19.880;2023-08-08T18:12:18;13.10;1.00
18268;DHT22;9260;49.998;19.880;2023-08-08T18:22:23;12.30;1.00
18268;DHT22;9260;49.998;19.880;2023-08-08T18:32:26;11.70;1.00
18268;DHT22;9260;49.998;19.880;2023-08-08T18:42:31;11.30;1.00
18268;DHT22;9260;49.998;19.880;2023-08-08T18:52:34;10.90;1.00
18268;DHT22;9260;49.998;19.880;2023-08-08T19:02:39;10.60;1.00
18268;DHT22;9260;49.998;19.880;2023-08-08T19:12:42;10.40;1.00
18268;DHT22;9260;49.998;19.880;2023-08-08T19:22:47;10.10;1.00
18268;DHT22;9260;49.998;19.880;2023-08-08T19:32:50;9.90;1.00
18268;DHT22;9260;49.998;19.880;2023-08-08T19:42:55;9.50;1.00
18268;DHT22;9260;49.998;19.880;2023-08-08T19:52:58;9.60;1.00
18268;DHT22;9260;49.998;19.880;2023-08-08T20:03:03;9.40;1.00
18268;DHT22;9260;49.998;19.880;2023-08-08T20:13:07;9.30;1.00
18268;DHT22;9260;49.998;19.880;2023-08-08T20:23:13;9.20;1.00
18268;DHT22;9260;49.998;19.880;2023-08-08T20:33:17;9.00;1.00
18268;DHT22;9260;49.998;19.880;2023-08-08T20:43:21;8.90;1.00
18268;DHT22;9260;49.998;19.880;2023-08-08T20:53:24;8.50;1.00
18268;DHT22;9260;49.998;19.880;2023-08-08T21:03:29;8.40;1.00
18268;DHT22;9260;49.998;19.880;2023-08-08T21:13:33;8.50;1.00
18268;DHT22;9260;49.998;19.880;2023-08-08T21:23:37;8.80;1.00
18268;DHT22;9260;49.998;19.880;2023-08-08T21:33:41;8.40;1.00
18268;DHT22;9260;49.998;19.880;2023-08-08T21:43:45;9.00;1.00
18268;DHT22;9260;49.998;19.880;2023-08-08T21:53:49;9.10;1.00
18268;DHT22;9260;49.998;19.880;2023-08-08T22:03:54;9.60;1.00
18268;DHT22;9260;49.998;19.880;2023-08-08T22:13:57;10.10;1.00
18268;DHT22;9260;49.998;19.880;2023-08-08T22:24:04;10.50;1.00
18268;DHT22;9260;49.998;19.880;2023-08-08T22:34:08;11.00;1.00
18268;DHT22;9260;49.998;19.880;2023-08-08T22:44:13;11.20;1.00
18268;DHT22;9260;49.998;19.880;2023-08-08T22:54:16;11.10;1.00
18268;DHT22;9260;49.998;19.880;2023-08-08T23:04:20;11.20;1.00
18268;DHT22;9260;49.998;19.880;2023-08-08T23:14:24;11.10;1.00
18268;DHT22;9260;49.998;19.880;2023-08-08T23:24:28;11.30;1.00
18268;DHT22;9260;49.998;19.880;2023-08-08T23:34:32;11.10;1.00
18268;DHT22;9260;49.998;19.880;2023-08-08T23:44:37;11.00;1.00
18268;DHT22;9260;49.998;19.880;2023-08-08T23:54:42;11.00;1.00
